Time;durP1;ratioP1;P1;durP2;ratioP2;P2;SDS_P1;SDS_P2;PMS_P1;PMS_P2;Temp;Humidity;BMP_temperature;BMP_pressure;BME280_temperature;BME280_humidity;BME280_pressure;Samples;Min_cycle;Max_cycle;Signal;HPM_P1;HPM_P2
2022/05/02 00:00:09;;;;;;;18.20;10.70;;;3.40;99.90;;;;;;5068735;28;20443;-41
2022/05/02 00:02:36;;;;;;;18.90;11.60;;;3.00;99.90;;;;;;5068970;28;20505;-41
2022/05/02 00:05:02;;;;;;;16.30;10.77;;;3.20;99.90;;;;;;5068673;28;20383;-41
2022/05/02 00:07:28;;;;;;;16.83;11.02;;;2.90;99.90;;;;;;5070298;28;20049;-42
2022/05/02 00:09:54;;;;;;;20.63;12.30;;;3.30;99.90;;;;;;5069056;28;20395;-41
2022/05/02 00:12:20;;;;;;;21.27;12.70;;;3.00;99.90;;;;;;5070119;28;20044;-41
2022/05/02 00:14:45;;;;;;;17.83;12.57;;;3.10;99.90;;;;;;5069882;28;20547;-41
2022/05/02 00:17:11;;;;;;;19.20;11.73;;;3.00;99.90;;;;;;5068241;28;20040;-41
2022/05/02 00:19:37;;;;;;;18.38;11.73;;;3.00;99.90;;;;;;5069430;28;20094;-42
2022/05/02 00:22:03;;;;;;;16.73;10.68;;;3.00;99.90;;;;;;5069984;28;20050;-40
2022/05/02 00:24:28;;;;;;;13.85;8.50;;;2.90;99.90;;;;;;5069541;28;20487;-41
2022/05/02 00:26:56;;;;;;;10.85;7.78;;;3.50;99.90;;;;;;5069552;28;20043;-41
2022/05/02 00:29:22;;;;;;;13.63;9.10;;;2.70;99.90;;;;;;5069279;28;20098;-41
2022/05/02 00:31:48;;;;;;;19.38;11.35;;;2.70;99.90;;;;;;5068704;28;20070;-41
2022/05/02 00:34:14;;;;;;;18.58;11.27;;;2.60;99.90;;;;;;5068930;28;20063;-41
2022/05/02 00:36:40;;;;;;;18.98;12.45;;;2.60;99.90;;;;;;5069462;28;20311;-42
2022/05/02 00:39:06;;;;;;;19.85;11.50;;;2.60;99.90;;;;;;5068649;28;20052;-41
2022/05/02 00:41:31;;;;;;;20.00;13.00;;;2.70;99.90;;;;;;5069236;28;20054;-42
2022/05/02 00:43:57;;;;;;;14.63;9.80;;;2.70;99.90;;;;;;5068792;28;20036;-41
2022/05/02 00:46:25;;;;;;;16.35;9.57;;;2.50;99.90;;;;;;5069051;28;20044;-41
2022/05/02 00:48:52;;;;;;;13.07;8.77;;;2.50;99.90;;;;;;5068759;28;20518;-41
2022/05/02 00:51:19;;;;;;;13.00;8.80;;;2.30;99.90;;;;;;5069016;28;20078;-40
2022/05/02 00:53:51;;;;;;;14.93;9.27;;;2.30;99.90;;;;;;5069244;28;20041;-41
2022/05/02 00:56:18;;;;;;;16.17;11.30;;;2.20;99.90;;;;;;5068782;28;20048;-42
2022/05/02 00:58:44;;;;;;;19.58;12.88;;;2.20;99.90;;;;;;5068994;28;20055;-41
2022/05/02 01:01:10;;;;;;;24.42;14.48;;;2.30;99.90;;;;;;5068543;28;20036;-42
2022/05/02 01:03:36;;;;;;;25.88;14.68;;;2.60;99.90;;;;;;5068765;28;20051;-42
2022/05/02 01:08:47;;;;;;;20.30;14.07;;;2.30;99.90;;;;;;5069250;28;20055;-42
2022/05/02 01:11:13;;;;;;;22.10;14.10;;;2.50;99.90;;;;;;5069120;28;20040;-42
2022/05/02 01:13:40;;;;;;;23.77;14.85;;;2.40;99.90;;;;;;5067288;28;20048;-42
2022/05/02 01:16:19;;;;;;;23.75;14.77;;;2.40;99.90;;;;;;5068450;28;20486;-41
2022/05/02 01:18:47;;;;;;;23.77;14.45;;;2.20;99.90;;;;;;5068852;28;20106;-41
2022/05/02 01:21:15;;;;;;;28.90;16.27;;;2.40;99.90;;;;;;5068647;28;20041;-42
2022/05/02 01:23:46;;;;;;;22.02;14.35;;;2.30;99.90;;;;;;5068661;28;20040;-41
2022/05/02 01:26:12;;;;;;;23.48;14.30;;;2.30;99.90;;;;;;5068424;28;20510;-41
2022/05/02 01:28:58;;;;;;;20.58;12.75;;;2.30;99.90;;;;;;5068566;28;20155;-41
2022/05/02 01:31:24;;;;;;;15.38;10.48;;;2.30;99.90;;;;;;5068744;28;20046;-41
2022/05/02 01:33:51;;;;;;;15.98;11.55;;;2.10;99.90;;;;;;5068938;28;20046;-41
2022/05/02 01:36:19;;;;;;;15.88;8.98;;;2.00;99.90;;;;;;5068540;28;20383;-41
2022/05/02 01:38:45;;;;;;;20.75;12.60;;;2.00;99.90;;;;;;5068597;28;20064;-41
2022/05/02 01:41:11;;;;;;;18.30;13.00;;;1.80;99.90;;;;;;5068640;28;20339;-41
2022/05/02 01:43:37;;;;;;;22.10;13.80;;;1.80;99.90;;;;;;5069112;28;20044;-41
2022/05/02 01:46:05;;;;;;;17.02;11.40;;;1.80;99.90;;;;;;5069244;28;20049;-42
2022/05/02 01:48:31;;;;;;;18.70;12.88;;;1.80;99.90;;;;;;5069102;28;20101;-42
2022/05/02 01:50:58;;;;;;;20.77;14.02;;;1.70;99.90;;;;;;5068885;28;20048;-42
2022/05/02 01:53:24;;;;;;;21.77;13.13;;;1.70;99.90;;;;;;5068407;28;20045;-41
2022/05/02 01:55:50;;;;;;;21.45;12.68;;;1.70;99.90;;;;;;5068679;28;20079;-42
2022/05/02 01:58:16;;;;;;;16.25;10.85;;;1.70;99.90;;;;;;5068510;28;20040;-42
2022/05/02 02:00:42;;;;;;;14.00;10.13;;;1.50;99.90;;;;;;5068560;28;20047;-41
2022/05/02 02:03:08;;;;;;;14.85;9.85;;;1.50;99.90;;;;;;5067534;28;20129;-41
2022/05/02 02:05:49;;;;;;;12.30;8.50;;;1.30;99.90;;;;;;5068500;28;20083;-41
2022/05/02 02:08:21;;;;;;;14.05;8.73;;;1.20;99.90;;;;;;5068038;28;20052;-41
2022/05/02 02:10:48;;;;;;;17.75;10.05;;;1.30;99.90;;;;;;5068060;28;20041;-42
2022/05/02 02:13:15;;;;;;;14.77;9.68;;;1.20;99.90;;;;;;5068152;28;20487;-41
2022/05/02 02:15:41;;;;;;;16.45;10.52;;;1.00;99.90;;;;;;5068201;28;20040;-41
2022/05/02 02:18:07;;;;;;;11.70;8.48;;;1.00;99.90;;;;;;5067782;28;20097;-41
2022/05/02 02:20:34;;;;;;;12.40;7.70;;;1.00;99.90;;;;;;5067425;28;20135;-41
2022/05/02 02:23:00;;;;;;;15.43;9.15;;;1.00;99.90;;;;;;5067841;28;20056;-41
2022/05/02 02:25:26;;;;;;;18.38;12.13;;;0.90;99.90;;;;;;5067823;28;20550;-41
2022/05/02 02:27:53;;;;;;;17.58;10.48;;;0.90;99.90;;;;;;5068219;28;20502;-41
2022/05/02 02:30:19;;;;;;;14.98;10.73;;;0.90;99.90;;;;;;5068325;28;20086;-43
2022/05/02 02:32:45;;;;;;;10.85;7.47;;;1.10;99.90;;;;;;5068436;28;20036;-41
2022/05/02 02:35:11;;;;;;;8.80;6.65;;;0.80;99.90;;;;;;5071829;28;20040;-42
2022/05/02 02:37:37;;;;;;;10.70;7.25;;;0.80;99.90;;;;;;5071510;28;20409;-41
2022/05/02 02:40:03;;;;;;;8.63;6.28;;;0.90;99.90;;;;;;5071046;28;20080;-41
2022/05/02 02:42:29;;;;;;;9.27;6.05;;;0.70;99.90;;;;;;5071344;28;20059;-41
2022/05/02 02:44:54;;;;;;;9.70;7.00;;;0.80;99.90;;;;;;5071675;28;20040;-40
2022/05/02 02:47:20;;;;;;;9.55;6.45;;;0.70;99.90;;;;;;5071088;28;20719;-41
2022/05/02 02:49:46;;;;;;;10.18;7.15;;;0.70;99.90;;;;;;5071355;28;20036;-42
2022/05/02 02:52:11;;;;;;;10.90;7.22;;;0.60;99.90;;;;;;5071238;28;20036;-42
2022/05/02 02:54:37;;;;;;;12.05;7.57;;;0.70;99.90;;;;;;5070815;28;20036;-41
2022/05/02 02:57:03;;;;;;;12.05;7.75;;;0.70;99.90;;;;;;5071290;28;20439;-41
2022/05/02 02:59:29;;;;;;;12.05;8.80;;;0.50;99.90;;;;;;5071118;28;20044;-41
2022/05/02 03:01:56;;;;;;;13.88;9.60;;;0.60;99.90;;;;;;5071193;28;20498;-41
2022/05/02 03:07:08;;;;;;;16.85;10.63;;;0.50;99.90;;;;;;5071054;28;20055;-41
2022/05/02 03:09:34;;;;;;;14.70;9.95;;;0.40;99.90;;;;;;5070878;28;20186;-41
2022/05/02 03:12:00;;;;;;;16.63;9.40;;;0.40;99.90;;;;;;5071357;28;20568;-41
2022/05/02 03:14:25;;;;;;;13.40;8.88;;;0.40;99.90;;;;;;5071231;28;20045;-43
2022/05/02 03:16:51;;;;;;;12.85;8.95;;;0.40;99.90;;;;;;5071416;28;20033;-43
2022/05/02 03:19:17;;;;;;;13.52;9.35;;;0.40;99.90;;;;;;5071293;28;20080;-41
2022/05/02 03:21:43;;;;;;;13.43;9.48;;;0.40;99.90;;;;;;5070758;28;20068;-42
2022/05/02 03:24:08;;;;;;;16.17;10.13;;;0.20;99.90;;;;;;5070861;28;20495;-43
2022/05/02 03:26:34;;;;;;;14.45;9.48;;;0.40;99.90;;;;;;5070565;28;20119;-41
2022/05/02 03:28:59;;;;;;;11.20;7.65;;;0.30;99.90;;;;;;5070652;28;20067;-42
2022/05/02 03:31:26;;;;;;;13.63;8.75;;;0.30;99.90;;;;;;5068872;28;20044;-42
2022/05/02 03:33:52;;;;;;;12.38;8.70;;;0.30;99.90;;;;;;5070709;28;20032;-41
2022/05/02 03:36:18;;;;;;;15.20;8.25;;;0.20;99.90;;;;;;5070809;28;20047;-41
2022/05/02 03:38:43;;;;;;;12.90;8.05;;;0.10;99.90;;;;;;5070558;28;20546;-42
2022/05/02 03:41:09;;;;;;;16.92;10.82;;;0.20;99.90;;;;;;5071244;28;20079;-41
2022/05/02 03:43:36;;;;;;;13.52;9.07;;;0.20;99.90;;;;;;5070948;28;20045;-40
2022/05/02 03:46:02;;;;;;;11.85;7.78;;;0.10;99.90;;;;;;5070216;28;20048;-41
2022/05/02 03:48:28;;;;;;;11.57;7.93;;;0.10;99.90;;;;;;5070592;28;20051;-41
2022/05/02 03:50:54;;;;;;;13.50;7.10;;;0.30;99.90;;;;;;5070539;28;20044;-41
2022/05/02 03:53:20;;;;;;;10.93;6.95;;;0.00;99.90;;;;;;5070507;28;20092;-42
2022/05/02 03:55:46;;;;;;;9.23;6.65;;;0.10;99.90;;;;;;5069996;28;20059;-42
2022/05/02 03:58:12;;;;;;;9.63;7.20;;;0.00;99.90;;;;;;5070110;28;20044;-42
2022/05/02 04:00:39;;;;;;;10.38;7.05;;;0.00;99.90;;;;;;5070164;28;20055;-41
2022/05/02 04:03:05;;;;;;;10.40;7.10;;;0.00;99.90;;;;;;5069935;28;20481;-41
2022/05/02 04:05:31;;;;;;;11.32;8.40;;;-0.30;99.90;;;;;;5069574;28;20123;-41
2022/05/02 04:07:56;;;;;;;16.70;9.73;;;-0.10;99.90;;;;;;5070167;28;20094;-42
2022/05/02 04:10:22;;;;;;;13.57;9.45;;;-0.10;99.90;;;;;;5070215;28;20052;-40
2022/05/02 04:12:48;;;;;;;13.00;8.68;;;-0.10;99.90;;;;;;5069567;28;20131;-42
2022/05/02 04:15:14;;;;;;;10.00;7.35;;;0.40;99.90;;;;;;5070075;28;20052;-41
2022/05/02 04:17:40;;;;;;;10.88;7.95;;;0.00;99.90;;;;;;5069725;28;20755;-40
2022/05/02 04:20:08;;;;;;;11.07;8.02;;;0.00;99.90;;;;;;5069671;28;20047;-42
2022/05/02 04:22:35;;;;;;;12.40;8.05;;;-0.10;99.90;;;;;;5069349;28;20059;-41
2022/05/02 04:25:00;;;;;;;10.65;7.75;;;0.10;99.90;;;;;;5069996;28;20040;-42
2022/05/02 04:27:26;;;;;;;13.73;8.45;;;0.10;99.90;;;;;;5070022;28;20475;-41
2022/05/02 04:29:52;;;;;;;10.80;8.40;;;0.00;99.90;;;;;;5070146;28;20505;-42
2022/05/02 04:32:18;;;;;;;12.18;8.18;;;0.20;99.90;;;;;;5069760;28;20471;-42
2022/05/02 04:34:43;;;;;;;16.92;9.65;;;0.20;99.90;;;;;;5069479;28;20479;-40
2022/05/02 04:37:09;;;;;;;14.50;8.15;;;0.30;99.90;;;;;;5069704;28;20044;-41
2022/05/02 04:39:35;;;;;;;11.32;7.82;;;0.30;99.90;;;;;;5069151;28;20056;-41
2022/05/02 04:42:01;;;;;;;9.27;7.32;;;0.40;99.90;;;;;;5069515;28;20155;-40
2022/05/02 04:44:27;;;;;;;10.70;7.78;;;0.40;99.90;;;;;;5069893;28;20442;-41
2022/05/02 04:46:53;;;;;;;9.95;7.25;;;0.60;99.90;;;;;;5069232;28;20048;-42
2022/05/02 04:49:18;;;;;;;10.48;6.90;;;0.60;99.90;;;;;;5069485;28;20044;-43
2022/05/02 04:51:44;;;;;;;8.73;6.60;;;0.70;99.90;;;;;;5069458;28;20036;-42
2022/05/02 04:54:10;;;;;;;10.05;7.53;;;0.80;99.90;;;;;;5069301;28;20133;-42
2022/05/02 04:56:35;;;;;;;10.80;7.70;;;1.00;99.90;;;;;;5067161;28;20047;-41
2022/05/02 04:59:01;;;;;;;10.75;8.27;;;1.00;99.90;;;;;;5069466;28;20876;-43
2022/05/02 05:01:27;;;;;;;8.35;7.22;;;1.10;99.90;;;;;;5069602;28;20060;-41
2022/05/02 05:03:52;;;;;;;10.98;7.68;;;1.30;99.90;;;;;;5068663;28;20062;-41
2022/05/02 05:06:18;;;;;;;9.15;7.18;;;1.50;99.90;;;;;;5069160;28;20108;-41
2022/05/02 05:08:44;;;;;;;10.90;7.28;;;1.80;99.90;;;;;;5068923;28;20032;-41
2022/05/02 05:11:34;;;;;;;8.45;7.20;;;2.40;99.90;;;;;;5069154;28;20044;-42
2022/05/02 05:17:08;;;;;;;6.25;5.32;;;5.50;99.90;;;;;;5068465;28;20055;-42
2022/05/02 05:19:54;;;;;;;5.53;4.90;;;7.50;99.90;;;;;;5069077;28;20158;-42
2022/05/02 05:22:38;;;;;;;7.75;4.75;;;8.30;99.90;;;;;;5068767;28;20040;-42
2022/05/02 05:25:27;;;;;;;5.32;4.20;;;10.20;99.90;;;;;;5068927;28;20118;-42
2022/05/02 05:28:08;;;;;;;4.78;3.85;;;10.20;99.90;;;;;;5068613;28;20056;-43
2022/05/02 05:30:44;;;;;;;4.28;3.83;;;11.10;99.90;;;;;;5068767;28;20755;-46
2022/05/02 05:33:25;;;;;;;7.43;3.65;;;12.00;99.90;;;;;;5069081;28;20056;-42
2022/05/02 05:36:17;;;;;;;5.90;5.28;;;11.70;99.90;;;;;;5068390;28;20498;-43
2022/05/02 05:38:51;;;;;;;4.80;4.25;;;11.50;99.90;;;;;;5068317;28;20048;-44
2022/05/02 05:41:38;;;;;;;6.05;4.82;;;13.60;99.90;;;;;;5069235;28;20127;-43
2022/05/02 05:44:13;;;;;;;6.13;4.15;;;13.90;98.40;;;;;;5069057;28;20048;-43
2022/05/02 05:47:05;;;;;;;5.40;3.95;;;14.90;95.70;;;;;;5068944;28;20045;-44
2022/05/02 05:49:53;;;;;;;6.15;5.18;;;15.80;91.20;;;;;;5068651;28;20510;-44
2022/05/02 05:52:27;;;;;;;8.27;5.85;;;16.70;88.10;;;;;;5068767;28;20044;-44
2022/05/02 05:55:07;;;;;;;11.63;8.13;;;17.50;87.00;;;;;;5068156;28;20045;-43
2022/05/02 05:57:48;;;;;;;9.50;7.45;;;18.10;81.00;;;;;;5067607;28;20487;-44
2022/05/02 06:00:15;;;;;;;8.75;6.55;;;18.80;78.90;;;;;;5068717;28;20040;-44
2022/05/02 06:03:10;;;;;;;9.63;6.85;;;19.20;77.80;;;;;;5068216;28;20485;-44
2022/05/02 06:05:40;;;;;;;8.68;7.18;;;19.90;64.70;;;;;;5068242;28;20037;-45
2022/05/02 06:08:14;;;;;;;9.60;7.40;;;20.00;71.60;;;;;;5068893;28;20045;-43
2022/05/02 06:10:42;;;;;;;10.40;6.50;;;20.30;69.60;;;;;;5072189;28;20157;-46
2022/05/02 06:13:08;;;;;;;8.98;7.05;;;20.70;69.40;;;;;;5071041;28;20052;-45
2022/05/02 06:18:30;;;;;;;10.25;6.43;;;21.00;65.70;;;;;;5072408;28;20185;-44
2022/05/02 06:21:05;;;;;;;7.47;6.22;;;21.20;66.70;;;;;;5071932;28;20048;-44
2022/05/02 06:23:52;;;;;;;8.35;6.43;;;21.90;77.60;;;;;;5072050;28;20559;-45
2022/05/02 06:26:21;;;;;;;9.38;6.35;;;22.10;63.50;;;;;;5071470;28;20045;-44
2022/05/02 06:28:49;;;;;;;9.60;5.75;;;22.40;62.00;;;;;;5071633;28;20126;-44
2022/05/02 06:31:21;;;;;;;7.85;5.90;;;22.90;60.70;;;;;;5071892;28;20063;-45
2022/05/02 06:33:48;;;;;;;9.38;4.97;;;23.20;59.20;;;;;;5071809;28;20351;-44
2022/05/02 06:36:33;;;;;;;7.75;5.20;;;23.30;58.10;;;;;;5071872;28;20049;-44
2022/05/02 06:39:14;;;;;;;6.10;4.28;;;23.70;57.80;;;;;;5071337;28;20068;-44
2022/05/02 06:41:57;;;;;;;7.43;4.05;;;24.10;55.90;;;;;;5071273;28;20040;-46
2022/05/02 06:44:50;;;;;;;5.43;4.65;;;24.10;55.00;;;;;;5071620;28;20048;-45
2022/05/02 06:47:34;;;;;;;;;;;24.30;53.50;;;;;;5071918;28;20478;-48
2022/05/02 06:50:04;;;;;;;9.75;4.47;;;24.30;53.10;;;;;;5070842;28;19924;-45
2022/05/02 06:52:32;;;;;;;9.15;4.90;;;24.40;54.90;;;;;;5071570;28;20093;-45
2022/05/02 06:55:03;;;;;;;7.40;4.13;;;24.50;53.80;;;;;;5071431;28;20040;-47
2022/05/02 06:57:32;;;;;;;5.53;3.70;;;24.60;53.20;;;;;;5070880;28;20044;-45
2022/05/02 07:00:10;;;;;;;6.70;4.18;;;24.80;53.10;;;;;;5071191;28;20113;-45
2022/05/02 07:02:47;;;;;;;5.05;3.50;;;25.00;50.00;;;;;;5071543;28;20478;-46
2022/05/02 07:05:35;;;;;;;6.22;3.25;;;25.30;50.30;;;;;;5071502;28;20048;-50
2022/05/02 07:08:05;;;;;;;7.55;3.40;;;25.50;49.30;;;;;;5071549;28;20072;-44
2022/05/02 07:10:36;;;;;;;4.60;3.00;;;25.70;49.80;;;;;;5071238;28;20045;-43
2022/05/02 07:13:15;;;;;;;7.43;2.90;;;26.00;48.50;;;;;;5071219;28;20047;-44
2022/05/02 07:15:55;;;;;;;6.10;3.40;;;26.30;49.70;;;;;;5071314;28;20498;-44
2022/05/02 07:18:47;;;;;;;6.03;3.88;;;26.50;48.50;;;;;;5071207;28;20083;-44
2022/05/02 07:21:35;;;;;;;7.40;3.42;;;26.50;47.20;;;;;;5078402;28;20041;-44
2022/05/02 07:24:15;;;;;;;6.10;3.83;;;26.70;47.30;;;;;;5069729;28;20479;-44
2022/05/02 07:26:45;;;;;;;5.68;3.33;;;27.00;48.30;;;;;;5070153;28;20045;-43
2022/05/02 07:29:13;;;;;;;4.70;3.10;;;27.10;47.20;;;;;;5070048;28;20138;-45
2022/05/02 07:31:40;;;;;;;6.68;3.92;;;27.50;47.00;;;;;;5070188;28;20070;-44
2022/05/02 07:34:06;;;;;;;8.35;4.20;;;27.30;46.10;;;;;;5070364;28;20045;-43
2022/05/02 07:36:35;;;;;;;7.38;3.22;;;27.10;45.70;;;;;;5070843;28;20039;-43
2022/05/02 07:39:05;;;;;;;5.95;3.70;;;26.60;46.00;;;;;;5070275;28;20422;-44
2022/05/02 07:41:35;;;;;;;6.53;3.08;;;26.30;45.10;;;;;;5070585;28;20055;-44
2022/05/02 07:44:07;;;;;;;6.90;3.17;;;26.30;46.20;;;;;;5070219;28;20072;-43
2022/05/02 07:46:47;;;;;;;8.27;3.45;;;26.70;45.50;;;;;;5069856;28;20051;-43
2022/05/02 07:49:25;;;;;;;5.22;3.40;;;27.40;43.60;;;;;;5069858;28;20045;-43
2022/05/02 07:51:53;;;;;;;6.70;3.40;;;27.70;43.80;;;;;;5070531;28;20075;-45
2022/05/02 07:54:25;;;;;;;6.57;3.15;;;28.00;44.10;;;;;;5069958;28;20036;-45
2022/05/02 07:57:00;;;;;;;5.60;3.78;;;28.60;43.30;;;;;;5069031;28;20048;-45
2022/05/02 07:59:30;;;;;;;7.70;2.85;;;28.70;42.30;;;;;;5069750;28;20483;-45
2022/05/02 08:01:58;;;;;;;6.82;3.35;;;29.10;43.10;;;;;;5070145;28;20399;-45
2022/05/02 08:04:24;;;;;;;5.25;2.80;;;29.40;42.30;;;;;;5070046;28;20050;-45
2022/05/02 08:07:00;;;;;;;4.93;2.78;;;29.30;41.60;;;;;;5069639;28;20696;-45
2022/05/02 08:09:56;;;;;;;5.13;3.13;;;29.60;41.90;;;;;;5069913;28;20098;-44
2022/05/02 08:12:29;;;;;;;5.60;3.65;;;29.90;40.80;;;;;;5069745;28;20467;-45
2022/05/02 08:15:19;;;;;;;4.35;2.85;;;30.10;40.40;;;;;;5069466;28;20083;-43
2022/05/02 08:18:06;;;;;;;5.57;2.95;;;30.10;39.30;;;;;;5070178;28;20680;-44
2022/05/02 08:20:52;;;;;;;7.20;2.85;;;30.10;40.10;;;;;;5069599;28;20475;-45
2022/05/02 08:30:02;;;;;;;6.20;3.45;;;31.00;38.50;;;;;;5066490;28;20530;-46
2022/05/02 08:32:46;;;;;;;4.43;2.70;;;31.00;38.80;;;;;;5072425;28;20662;-47
2022/05/02 08:35:18;;;;;;;7.10;3.83;;;31.00;38.00;;;;;;5066749;28;20106;-46
2022/05/02 08:38:11;;;;;;;7.25;3.20;;;30.70;37.90;;;;;;5066857;28;20040;-45
2022/05/02 08:40:56;;;;;;;4.50;3.05;;;30.90;39.30;;;;;;5066888;28;20056;-47
2022/05/02 08:43:50;;;;;;;4.97;3.67;;;31.60;43.80;;;;;;5066886;28;20044;-47
2022/05/02 08:46:47;;;;;;;5.20;3.33;;;32.50;54.40;;;;;;5066244;28;20391;-48
2022/05/02 08:49:43;;;;;;;4.05;2.90;;;34.00;38.30;;;;;;5066662;28;20067;-48
2022/05/02 08:52:23;;;;;;;4.32;3.30;;;33.80;37.10;;;;;;5061205;28;20040;-51
2022/05/02 08:54:52;;;;;;;6.43;3.45;;;34.50;36.80;;;;;;5052316;28;20490;-54
2022/05/02 08:57:49;;;;;;;4.95;3.30;;;35.10;35.60;;;;;;5063409;28;20399;-48
2022/05/02 09:00:47;;;;;;;5.88;3.65;;;35.40;35.10;;;;;;5064509;28;20055;-47
2022/05/02 09:03:50;;;;;;;6.53;3.38;;;35.30;33.40;;;;;;5065134;28;20076;-50
2022/05/02 09:06:40;;;;;;;4.78;3.38;;;35.60;33.70;;;;;;5062817;28;20381;-50
2022/05/02 09:09:29;;;;;;;4.65;3.60;;;36.00;31.90;;;;;;5062631;28;20596;-47
2022/05/02 09:12:08;;;;;;;6.20;3.55;;;36.00;32.70;;;;;;5063050;28;20169;-45
2022/05/02 09:14:52;;;;;;;6.97;3.83;;;33.90;32.30;;;;;;5062601;28;20070;-47
2022/05/02 09:17:58;;;;;;;8.35;4.13;;;33.00;33.90;;;;;;5064425;28;20436;-45
2022/05/02 09:20:24;;;;;;;5.03;3.65;;;33.50;33.70;;;;;;5063144;28;20056;-45
2022/05/02 09:23:17;;;;;;;6.15;3.35;;;34.00;33.20;;;;;;5053197;28;20835;-47
2022/05/02 09:26:11;;;;;;;5.38;4.07;;;34.70;32.40;;;;;;5064300;28;20720;-45
2022/05/02 09:28:53;;;;;;;4.80;3.65;;;35.70;31.00;;;;;;5064450;28;20545;-42
2022/05/02 09:31:42;;;;;;;5.18;3.33;;;36.00;31.00;;;;;;5064862;28;20072;-42
2022/05/02 09:34:45;;;;;;;5.65;3.58;;;35.80;30.10;;;;;;5064036;28;20040;-44
2022/05/02 09:37:17;;;;;;;6.28;2.92;;;35.10;30.00;;;;;;5063019;28;20127;-43
2022/05/02 09:39:48;;;;;;;4.45;2.80;;;34.90;30.20;;;;;;5063802;28;20052;-46
2022/05/02 09:42:32;;;;;;;5.13;3.28;;;34.80;31.50;;;;;;5063844;28;20095;-43
2022/05/02 09:51:22;;;;;;;7.13;3.37;;;33.80;31.00;;;;;;5076617;28;20044;-45
2022/05/02 09:53:51;;;;;;;5.75;2.78;;;33.10;31.90;;;;;;5064474;28;20710;-45
2022/05/02 09:56:38;;;;;;;8.07;3.10;;;33.20;32.50;;;;;;5064232;28;20045;-43
2022/05/02 09:59:19;;;;;;;7.28;2.55;;;33.30;32.00;;;;;;5062916;28;20084;-43
2022/05/02 10:02:05;;;;;;;4.28;2.45;;;33.80;31.70;;;;;;5064488;28;20045;-44
2022/05/02 10:05:06;;;;;;;4.80;2.83;;;34.10;30.60;;;;;;5064665;28;20051;-42
2022/05/02 10:07:56;;;;;;;4.82;2.50;;;34.40;30.70;;;;;;5062361;28;20127;-42
2022/05/02 10:10:42;;;;;;;3.95;2.90;;;34.00;30.90;;;;;;5066081;28;20060;-44
2022/05/02 10:13:35;;;;;;;4.68;2.15;;;33.90;31.40;;;;;;5064374;28;20044;-44
2022/05/02 10:16:28;;;;;;;5.40;3.00;;;34.20;32.40;;;;;;5063809;28;20215;-42
2022/05/02 10:18:54;;;;;;;3.95;3.03;;;34.30;31.60;;;;;;5064292;28;20056;-42
2022/05/02 10:21:23;;;;;;;4.80;2.75;;;33.90;30.90;;;;;;5064540;28;20044;-44
2022/05/02 10:23:55;;;;;;;4.10;2.42;;;34.10;31.50;;;;;;5042753;28;20075;-42
2022/05/02 10:26:48;;;;;;;5.97;2.80;;;34.30;31.60;;;;;;5062750;28;20064;-46
2022/05/02 10:29:30;;;;;;;5.72;2.80;;;34.10;30.20;;;;;;5062906;28;20552;-47
2022/05/02 10:32:16;;;;;;;3.70;2.42;;;33.70;30.80;;;;;;5063698;28;20108;-44
2022/05/02 10:34:46;;;;;;;4.13;2.72;;;33.50;30.60;;;;;;5065859;28;20063;-44
2022/05/02 10:37:15;;;;;;;3.70;2.70;;;33.40;31.10;;;;;;5063057;28;20056;-46
2022/05/02 10:39:47;;;;;;;5.15;3.03;;;33.40;31.60;;;;;;5063626;28;20063;-43
2022/05/02 10:42:18;;;;;;;4.93;2.70;;;33.20;30.40;;;;;;5061699;28;20044;-43
2022/05/02 10:45:02;;;;;;;5.78;2.92;;;32.70;32.90;;;;;;5064092;28;20483;-44
2022/05/02 10:47:37;;;;;;;7.82;3.90;;;31.30;30.90;;;;;;5063821;28;20040;-43
2022/05/02 10:50:34;;;;;;;4.55;3.33;;;29.40;31.30;;;;;;5063398;28;20581;-43
2022/05/02 10:53:18;;;;;;;5.75;4.05;;;27.60;31.90;;;;;;5065444;28;20051;-42
2022/05/02 10:56:02;;;;;;;5.88;3.65;;;26.70;35.30;;;;;;5068204;28;20052;-43
2022/05/02 10:58:50;;;;;;;7.13;3.58;;;24.60;35.10;;;;;;5070723;28;20076;-44
2022/05/02 11:01:29;;;;;;;4.40;3.83;;;23.90;42.80;;;;;;5068751;28;20097;-42
2022/05/02 11:04:09;;;;;;;5.90;3.65;;;23.00;37.70;;;;;;5069401;28;20051;-43
2022/05/02 11:06:56;;;;;;;7.10;2.90;;;22.10;39.00;;;;;;5068377;28;20080;-43
2022/05/02 11:09:35;;;;;;;5.88;2.97;;;21.50;41.30;;;;;;5069943;28;20210;-41
2022/05/02 11:12:03;;;;;;;4.97;3.55;;;21.10;42.30;;;;;;5069214;28;20036;-41
2022/05/02 11:14:50;;;;;;;6.10;3.00;;;20.90;43.30;;;;;;5069360;28;20040;-42
2022/05/02 11:17:19;;;;;;;7.20;3.22;;;20.70;45.80;;;;;;5069793;28;20044;-42
2022/05/02 11:23:18;;;;;;;6.30;3.35;;;20.30;46.20;;;;;;5069847;28;20091;-40
2022/05/02 11:26:37;;;;;;;6.47;3.65;;;20.20;45.90;;;;;;5077226;28;20056;-42
2022/05/02 11:29:09;;;;;;;9.40;5.05;;;20.00;44.90;;;;;;5074309;28;20146;-41
2022/05/02 11:31:47;;;;;;;8.93;3.58;;;19.90;44.90;;;;;;5069352;28;20589;-40
2022/05/02 11:34:34;;;;;;;6.32;3.15;;;19.90;45.10;;;;;;5070660;28;20048;-40
2022/05/02 11:37:23;;;;;;;4.30;3.50;;;19.80;45.70;;;;;;5070961;28;20509;-42
2022/05/02 11:40:05;;;;;;;6.97;3.88;;;19.80;46.70;;;;;;5070152;28;20135;-40
2022/05/02 11:42:33;;;;;;;5.80;4.47;;;19.70;46.60;;;;;;5069676;28;20036;-42
2022/05/02 11:45:10;;;;;;;5.65;4.00;;;19.50;45.90;;;;;;5070551;28;20119;-41
2022/05/02 11:48:00;;;;;;;7.10;3.85;;;19.10;46.40;;;;;;5069420;28;20054;-42
2022/05/02 11:50:27;;;;;;;5.13;3.75;;;19.00;46.60;;;;;;5068975;28;20651;-41
2022/05/02 11:53:01;;;;;;;6.97;3.60;;;18.80;46.90;;;;;;5069751;28;20048;-42
2022/05/02 11:55:33;;;;;;;5.20;3.70;;;18.70;48.40;;;;;;5069351;28;20037;-42
2022/05/02 11:58:26;;;;;;;7.10;3.92;;;18.50;49.00;;;;;;5068106;28;20132;-41
2022/05/02 12:01:00;;;;;;;7.28;3.17;;;18.50;49.50;;;;;;5068754;28;20157;-41
2022/05/02 12:03:49;;;;;;;5.85;3.70;;;18.50;49.60;;;;;;5069756;28;20049;-41
2022/05/02 12:06:17;;;;;;;6.80;4.43;;;18.50;50.10;;;;;;5068763;28;20051;-41
2022/05/02 12:08:48;;;;;;;5.38;3.30;;;18.50;48.60;;;;;;5068580;28;20110;-41
2022/05/02 12:11:15;;;;;;;5.72;3.53;;;18.40;47.30;;;;;;5070084;28;20144;-41
2022/05/02 12:13:47;;;;;;;4.80;3.95;;;18.30;47.60;;;;;;5069397;28;20040;-42
2022/05/02 12:16:19;;;;;;;6.30;4.10;;;18.40;50.30;;;;;;5069274;28;20051;-41
2022/05/02 12:18:51;;;;;;;6.88;4.28;;;18.40;52.00;;;;;;5068443;28;20036;-41
2022/05/02 12:21:39;;;;;;;6.10;3.60;;;18.60;50.60;;;;;;5069446;28;20044;-41
2022/05/02 12:24:26;;;;;;;7.55;3.83;;;18.60;52.00;;;;;;5068898;28;20468;-41
2022/05/02 12:26:53;;;;;;;6.15;4.32;;;18.70;50.60;;;;;;5069582;28;20052;-42
2022/05/02 12:29:20;;;;;;;7.03;4.38;;;18.70;50.00;;;;;;5069747;28;20044;-42
2022/05/02 12:32:07;;;;;;;8.25;5.00;;;18.60;49.50;;;;;;5068844;28;20118;-42
2022/05/02 12:34:44;;;;;;;6.25;4.13;;;18.50;50.30;;;;;;5068988;28;20162;-41
2022/05/02 12:37:46;;;;;;;8.68;4.35;;;18.50;50.20;;;;;;5053170;28;20433;-42
2022/05/02 12:40:15;;;;;;;7.13;5.20;;;18.50;51.30;;;;;;5064999;28;20714;-45
2022/05/02 12:42:47;;;;;;;6.57;5.10;;;18.50;51.20;;;;;;5064352;28;20490;-44
2022/05/02 12:45:22;;;;;;;6.65;5.10;;;18.50;51.10;;;;;;5065879;28;20152;-45
2022/05/02 12:47:55;;;;;;;12.05;4.88;;;18.40;49.30;;;;;;5065960;28;20094;-44
2022/05/02 12:50:29;;;;;;;6.85;4.28;;;18.40;50.20;;;;;;5064368;28;20042;-45
2022/05/02 12:53:05;;;;;;;7.22;4.03;;;18.40;50.30;;;;;;5066450;28;20114;-45
2022/05/02 12:55:33;;;;;;;6.10;4.55;;;18.50;51.30;;;;;;5065685;28;20037;-44
2022/05/02 13:00:52;;;;;;;8.32;4.47;;;18.70;53.00;;;;;;5064801;28;20051;-44
2022/05/02 13:03:18;;;;;;;6.53;4.05;;;18.70;52.30;;;;;;5065933;28;20097;-43
2022/05/02 13:05:46;;;;;;;6.82;3.95;;;18.60;51.30;;;;;;5065188;28;20049;-48
2022/05/02 13:08:14;;;;;;;6.80;4.28;;;18.60;51.60;;;;;;5065734;28;20066;-48
2022/05/02 13:10:43;;;;;;;8.05;4.75;;;18.70;52.00;;;;;;5065982;28;20044;-46
2022/05/02 13:13:11;;;;;;;5.97;3.97;;;18.70;51.70;;;;;;5066871;28;20080;-47
2022/05/02 13:15:36;;;;;;;6.97;4.25;;;18.80;51.70;;;;;;5065965;28;20037;-48
2022/05/02 13:18:10;;;;;;;10.85;4.55;;;18.80;52.90;;;;;;5065695;28;20536;-49
2022/05/02 13:20:36;;;;;;;7.55;4.80;;;18.70;53.50;;;;;;5064824;28;20123;-49
2022/05/02 13:23:07;;;;;;;9.43;4.70;;;18.60;52.40;;;;;;5068853;28;20063;-48
2022/05/02 13:26:03;;;;;;;9.02;5.97;;;18.60;52.60;;;;;;5068278;28;20040;-48
2022/05/02 13:28:57;;;;;;;9.35;4.70;;;18.60;53.20;;;;;;5064003;28;20059;-47
2022/05/02 13:31:33;;;;;;;5.60;4.50;;;18.70;51.80;;;;;;5064813;28;20049;-48
2022/05/02 13:34:02;;;;;;;8.82;5.07;;;18.70;52.60;;;;;;5065145;28;20049;-48
2022/05/02 13:36:39;;;;;;;5.85;4.75;;;18.80;52.50;;;;;;5066750;28;20116;-47
2022/05/02 13:39:22;;;;;;;5.93;4.53;;;18.80;51.50;;;;;;5057488;28;20175;-48
2022/05/02 13:42:02;;;;;;;7.15;4.72;;;18.50;51.20;;;;;;5065740;28;20174;-46
2022/05/02 13:44:46;;;;;;;6.63;4.55;;;18.30;52.50;;;;;;5068765;28;20037;-49
2022/05/02 13:47:42;;;;;;;7.72;4.45;;;18.10;53.00;;;;;;5068813;28;20051;-46
2022/05/02 13:50:12;;;;;;;9.40;4.63;;;18.10;53.30;;;;;;5069934;28;20040;-45